Time;durP1;ratioP1;P1;durP2;ratioP2;P2;SDS_P1;SDS_P2;PMS_P1;PMS_P2;Temp;Humidity;BMP_temperature;BMP_pressure;BME280_temperature;BME280_humidity;BME280_pressure;Samples;Min_cycle;Max_cycle;Signal;HPM_P1;HPM_P2
2023/01/05 00:00:54;;;;;;;14.55;2.53;;;10.30;88.30;;;;;;5040943;28;20268;-80
2023/01/05 00:03:21;;;;;;;12.50;2.25;;;10.20;88.50;;;;;;5044745;28;20069;-80
2023/01/05 00:05:50;;;;;;;15.48;2.95;;;10.20;88.30;;;;;;5047088;28;20041;-80
2023/01/05 00:08:17;;;;;;;14.27;2.60;;;10.20;88.30;;;;;;5044102;28;20061;-80
2023/01/05 00:24:46;;;;;;;12.83;1.80;;;10.20;87.50;;;;;;5040072;28;21017;-79
2023/01/05 00:27:12;;;;;;;11.70;2.05;;;10.20;87.50;;;;;;5045255;28;20359;-81
2023/01/05 00:29:39;;;;;;;13.13;1.90;;;10.20;87.20;;;;;;5029692;28;20053;-81
2023/01/05 00:32:06;;;;;;;16.38;2.80;;;10.30;87.00;;;;;;5046856;28;20063;-80
2023/01/05 00:34:33;;;;;;;13.43;1.90;;;10.30;86.60;;;;;;5047810;28;20562;-80
2023/01/05 00:37:02;;;;;;;13.63;1.90;;;10.30;86.40;;;;;;5029995;28;20147;-81
2023/01/05 00:39:29;;;;;;;10.90;1.63;;;10.30;86.20;;;;;;5046750;28;20921;-80
2023/01/05 00:41:56;;;;;;;16.90;2.70;;;10.30;85.90;;;;;;5029552;28;20508;-80
2023/01/05 00:44:23;;;;;;;15.45;2.60;;;10.40;85.70;;;;;;5028406;28;20053;-79
2023/01/05 00:46:50;;;;;;;14.77;2.55;;;10.40;84.80;;;;;;5029456;28;20127;-80
2023/01/05 00:49:17;;;;;;;13.23;2.63;;;10.40;84.60;;;;;;5046318;28;20057;-79
2023/01/05 00:51:44;;;;;;;18.40;2.90;;;10.40;84.20;;;;;;5029565;28;20731;-80
2023/01/05 00:54:13;;;;;;;19.23;3.55;;;10.40;84.10;;;;;;5046443;28;20049;-81
2023/01/05 00:56:39;;;;;;;13.05;2.50;;;10.40;83.70;;;;;;5029559;28;20567;-81
2023/01/05 00:59:07;;;;;;;15.13;2.38;;;10.40;84.00;;;;;;5029911;28;20085;-80
2023/01/05 01:01:34;;;;;;;15.00;3.07;;;10.40;83.90;;;;;;5046296;28;20056;-80
2023/01/05 01:04:01;;;;;;;13.88;2.30;;;10.40;83.50;;;;;;5048402;28;20784;-80
2023/01/05 01:06:28;;;;;;;12.95;2.30;;;10.40;83.60;;;;;;5029268;28;20132;-80
2023/01/05 01:08:55;;;;;;;16.73;2.10;;;10.40;83.40;;;;;;5029345;28;20155;-81
2023/01/05 01:11:23;;;;;;;11.18;2.17;;;10.40;83.40;;;;;;5029668;28;20204;-80
2023/01/05 01:13:50;;;;;;;15.63;2.23;;;10.40;83.20;;;;;;5029341;28;20046;-80
2023/01/05 01:16:17;;;;;;;12.25;1.95;;;10.40;83.20;;;;;;5028960;28;20264;-80
2023/01/05 01:18:44;;;;;;;12.00;2.28;;;10.40;83.40;;;;;;5028689;28;20065;-79
2023/01/05 01:21:11;;;;;;;19.65;3.40;;;10.40;83.30;;;;;;5047560;28;20404;-80
2023/01/05 01:23:38;;;;;;;11.10;1.85;;;10.30;83.40;;;;;;5029421;28;20935;-80
2023/01/05 01:26:06;;;;;;;15.73;2.53;;;10.30;83.60;;;;;;5031015;28;20139;-80
2023/01/05 01:28:35;;;;;;;24.85;3.47;;;10.30;83.60;;;;;;5049499;28;20308;-80
2023/01/05 01:31:03;;;;;;;12.93;2.75;;;10.30;83.50;;;;;;5032588;28;20136;-80
2023/01/05 01:33:30;;;;;;;17.45;2.75;;;10.30;83.60;;;;;;5033106;28;20504;-80
2023/01/05 01:35:57;;;;;;;13.95;2.70;;;10.30;83.70;;;;;;5048188;28;20076;-80
2023/01/05 01:38:25;;;;;;;12.07;2.60;;;10.40;83.40;;;;;;5049120;28;20163;-79
2023/01/05 01:40:52;;;;;;;8.48;1.35;;;10.40;83.20;;;;;;5049327;28;20327;-81
2023/01/05 01:43:36;;;;;;;15.75;2.72;;;10.40;83.30;;;;;;5033032;28;20069;-81
2023/01/05 01:46:05;;;;;;;13.35;2.03;;;10.30;83.20;;;;;;5032360;28;20050;-82
2023/01/05 01:48:33;;;;;;;15.95;2.78;;;10.30;83.10;;;;;;5032815;28;20049;-81
2023/01/05 01:51:02;;;;;;;16.40;2.53;;;10.30;83.00;;;;;;5032880;28;20072;-80
2023/01/05 01:53:35;;;;;;;10.70;1.48;;;10.30;83.10;;;;;;5047824;28;20773;-82
2023/01/05 01:56:04;;;;;;;14.77;2.15;;;10.30;83.20;;;;;;5032762;28;20060;-80
2023/01/05 01:58:32;;;;;;;11.27;1.77;;;10.30;83.30;;;;;;5033968;28;20060;-80
2023/01/05 02:01:00;;;;;;;12.27;2.10;;;10.30;83.50;;;;;;5048966;28;20097;-80
2023/01/05 02:03:29;;;;;;;14.77;2.40;;;10.30;83.50;;;;;;5032827;28;20129;-79
2023/01/05 02:05:56;;;;;;;9.85;2.00;;;10.30;83.50;;;;;;5032403;28;20273;-80
2023/01/05 02:08:30;;;;;;;14.25;2.63;;;10.20;83.60;;;;;;5048732;28;20519;-79
2023/01/05 02:11:12;;;;;;;7.68;1.48;;;10.20;83.40;;;;;;5031256;28;20049;-79
2023/01/05 02:13:55;;;;;;;12.18;2.08;;;10.30;83.50;;;;;;5032480;28;20053;-78
2023/01/05 02:16:28;;;;;;;13.67;2.70;;;10.30;83.50;;;;;;5038923;28;20046;-80
2023/01/05 02:19:23;;;;;;;18.10;2.40;;;10.30;83.30;;;;;;5031915;28;20287;-80
2023/01/05 02:22:02;;;;;;;11.18;1.88;;;10.20;83.50;;;;;;5012600;28;20566;-79
2023/01/05 02:25:02;;;;;;;15.32;1.15;;;10.20;83.60;;;;;;5025177;28;20549;-79
2023/01/05 02:27:51;;;;;;;16.30;1.67;;;10.30;83.50;;;;;;5047535;28;20053;-78
2023/01/05 02:30:58;;;;;;;12.90;2.33;;;10.20;83.60;;;;;;5029919;28;20531;-81
2023/01/05 02:33:37;;;;;;;9.77;1.83;;;10.30;83.50;;;;;;5032244;28;20245;-81
2023/01/05 02:36:13;;;;;;;14.80;2.13;;;10.20;83.30;;;;;;5032016;28;20049;-81
2023/01/05 02:38:46;;;;;;;17.05;2.35;;;10.20;83.10;;;;;;5047639;28;20049;-81
2023/01/05 02:41:19;;;;;;;11.20;1.90;;;10.20;83.10;;;;;;5031858;28;20535;-79
2023/01/05 02:43:46;;;;;;;19.37;2.67;;;10.30;82.90;;;;;;5047121;28;20059;-81
2023/01/05 02:46:14;;;;;;;9.88;1.67;;;10.20;83.00;;;;;;5031927;28;20253;-81
2023/01/05 02:48:43;;;;;;;12.20;2.50;;;10.30;83.00;;;;;;5048454;28;20435;-81
2023/01/05 02:51:15;;;;;;;14.18;1.77;;;10.20;83.20;;;;;;5031253;28;20541;-80
2023/01/05 02:53:47;;;;;;;17.20;2.55;;;10.20;83.70;;;;;;5031204;28;20158;-81
2023/01/05 02:56:20;;;;;;;15.83;2.13;;;10.20;83.90;;;;;;5032018;28;20571;-81
2023/01/05 02:58:51;;;;;;;11.25;2.10;;;10.20;84.00;;;;;;5048183;28;20718;-81
2023/01/05 03:01:22;;;;;;;17.60;2.78;;;10.20;84.00;;;;;;5029490;28;20053;-82
2023/01/05 03:03:55;;;;;;;13.35;2.35;;;10.20;84.40;;;;;;5029814;28;20644;-80
2023/01/05 03:06:26;;;;;;;15.43;2.22;;;10.10;84.50;;;;;;5031840;28;20102;-82
2023/01/05 03:08:57;;;;;;;14.43;2.77;;;10.10;84.70;;;;;;5031357;28;20049;-82
2023/01/05 03:14:22;;;;;;;16.95;2.38;;;10.10;84.60;;;;;;5031087;28;20053;-81
2023/01/05 03:16:53;;;;;;;13.15;2.15;;;10.10;84.60;;;;;;5031439;28;20525;-81
2023/01/05 03:19:35;;;;;;;13.70;2.38;;;10.10;84.80;;;;;;5029871;28;20049;-81
2023/01/05 03:36:11;;;;;;;9.90;1.80;;;10.00;85.30;;;;;;5029827;28;20053;-81
2023/01/05 03:38:42;;;;;;;18.08;2.83;;;10.00;85.00;;;;;;5047661;28;20287;-81
2023/01/05 03:41:12;;;;;;;17.52;2.92;;;10.00;85.10;;;;;;5047116;28;20534;-81
2023/01/05 03:43:42;;;;;;;14.35;2.45;;;10.00;85.10;;;;;;5030623;28;20053;-80
2023/01/05 03:46:11;;;;;;;9.05;1.73;;;10.00;85.10;;;;;;5031042;28;20480;-82
2023/01/05 03:48:40;;;;;;;14.60;2.43;;;10.10;84.80;;;;;;5030521;28;20511;-81
2023/01/05 03:51:07;;;;;;;11.65;2.20;;;10.00;84.90;;;;;;5030747;28;20273;-81
2023/01/05 03:53:36;;;;;;;13.75;2.30;;;10.00;85.10;;;;;;5029827;28;20052;-80
2023/01/05 03:56:03;;;;;;;13.88;2.70;;;10.00;85.30;;;;;;5030882;28;20148;-80
2023/01/05 03:58:30;;;;;;;9.85;1.95;;;10.00;85.50;;;;;;5030929;28;20523;-82
2023/01/05 04:00:57;;;;;;;14.37;3.30;;;10.00;85.60;;;;;;5046958;28;20128;-80
2023/01/05 04:03:25;;;;;;;10.63;2.58;;;10.00;85.70;;;;;;5047382;28;20284;-82
2023/01/05 04:05:54;;;;;;;11.80;1.92;;;10.00;85.90;;;;;;5030882;28;20176;-81
2023/01/05 04:08:25;;;;;;;12.32;2.50;;;10.00;85.80;;;;;;5030320;28;20501;-81
2023/01/05 04:10:52;;;;;;;18.70;3.92;;;10.00;85.70;;;;;;5046983;28;20132;-79
2023/01/05 04:13:20;;;;;;;16.00;2.50;;;10.00;85.70;;;;;;5030754;28;20050;-80
2023/01/05 04:15:48;;;;;;;15.10;2.50;;;10.00;85.50;;;;;;5030235;28;20295;-82
2023/01/05 04:18:15;;;;;;;14.18;1.75;;;10.00;85.50;;;;;;5047157;28;20054;-80
2023/01/05 04:20:43;;;;;;;9.02;1.70;;;10.00;85.50;;;;;;5029745;28;20050;-80
2023/01/05 04:23:11;;;;;;;14.02;2.58;;;10.00;85.50;;;;;;5030575;28;20069;-79
2023/01/05 04:25:38;;;;;;;14.93;2.87;;;10.00;85.50;;;;;;5030441;28;20049;-80
2023/01/05 04:28:16;;;;;;;10.05;1.90;;;10.10;85.30;;;;;;5045771;28;20720;-81
2023/01/05 04:30:44;;;;;;;14.10;2.10;;;10.10;85.00;;;;;;5048108;28;20636;-81
2023/01/05 04:33:12;;;;;;;18.73;2.53;;;10.10;85.10;;;;;;5046969;28;20128;-81
2023/01/05 04:35:39;;;;;;;9.30;1.58;;;10.10;84.80;;;;;;5046727;28;20584;-81
2023/01/05 04:38:07;;;;;;;14.13;2.90;;;10.10;84.80;;;;;;5030393;28;20567;-79
2023/01/05 04:40:36;;;;;;;9.48;1.65;;;10.10;84.70;;;;;;5029589;28;20889;-80
2023/01/05 04:43:03;;;;;;;11.90;1.70;;;10.10;84.80;;;;;;5030093;28;20058;-79
2023/01/05 04:45:31;;;;;;;12.35;1.90;;;10.10;85.00;;;;;;5028841;28;20108;-80
2023/01/05 04:47:59;;;;;;;9.55;1.52;;;10.10;84.90;;;;;;5029776;28;20061;-81
2023/01/05 04:50:28;;;;;;;13.63;2.70;;;10.10;85.00;;;;;;5029372;28;20049;-80
2023/01/05 04:52:56;;;;;;;16.10;2.38;;;10.20;85.00;;;;;;5029882;28;20280;-79
2023/01/05 04:55:23;;;;;;;11.80;2.88;;;10.20;85.00;;;;;;5029794;28;20045;-80
2023/01/05 04:57:52;;;;;;;13.90;2.40;;;10.20;85.10;;;;;;5029864;28;20721;-80
2023/01/05 05:00:20;;;;;;;11.65;1.73;;;10.10;85.20;;;;;;5028322;28;20053;-81
2023/01/05 05:02:54;;;;;;;15.50;2.63;;;10.10;85.30;;;;;;5028345;28;20060;-80
2023/01/05 05:05:21;;;;;;;15.85;3.13;;;10.20;85.10;;;;;;5046497;28;20256;-79
2023/01/05 05:07:51;;;;;;;13.07;2.55;;;10.10;85.00;;;;;;5029839;28;20053;-79
2023/01/05 05:10:19;;;;;;;11.23;2.00;;;10.10;85.20;;;;;;5029868;28;20045;-80
2023/01/05 05:12:47;;;;;;;14.10;2.15;;;10.10;85.20;;;;;;5029555;28;20054;-81
2023/01/05 05:15:15;;;;;;;14.40;1.90;;;10.10;85.30;;;;;;5046384;28;20079;-80
2023/01/05 05:17:47;;;;;;;16.60;2.20;;;10.10;85.20;;;;;;5029938;28;20901;-80
2023/01/05 05:20:16;;;;;;;14.13;1.95;;;10.10;85.30;;;;;;5027885;28;20057;-79
2023/01/05 05:22:44;;;;;;;8.82;1.05;;;10.10;85.40;;;;;;5029343;28;20099;-80
2023/01/05 05:25:13;;;;;;;11.00;1.90;;;10.10;85.30;;;;;;5029248;28;20050;-80
2023/01/05 05:27:44;;;;;;;12.53;1.73;;;10.10;85.40;;;;;;5045866;28;20625;-80
2023/01/05 05:30:11;;;;;;;15.55;3.03;;;10.10;85.50;;;;;;5045645;28;20265;-80
2023/01/05 05:32:40;;;;;;;18.58;3.20;;;10.10;85.40;;;;;;5029894;28;20045;-80
2023/01/05 05:35:08;;;;;;;11.82;2.10;;;10.10;85.30;;;;;;5047391;28;20141;-80
2023/01/05 05:37:34;;;;;;;14.93;1.75;;;10.10;85.30;;;;;;5044845;28;20093;-79
2023/01/05 05:40:01;;;;;;;13.60;2.50;;;10.10;85.20;;;;;;5045616;28;20511;-80
2023/01/05 05:42:28;;;;;;;9.70;1.30;;;10.10;85.20;;;;;;5046084;28;20782;-80
2023/01/05 05:44:56;;;;;;;14.00;2.20;;;10.10;85.20;;;;;;5045910;28;20058;-78
2023/01/05 05:47:22;;;;;;;13.45;1.98;;;10.10;85.20;;;;;;5029432;28;20123;-81
2023/01/05 05:49:51;;;;;;;13.45;2.65;;;10.10;85.10;;;;;;5045803;28;20052;-80
2023/01/05 05:52:18;;;;;;;6.10;1.07;;;10.10;85.10;;;;;;5029360;28;20049;-79
2023/01/05 05:54:45;;;;;;;18.20;2.25;;;10.10;85.10;;;;;;5046681;28;20330;-80
2023/01/05 05:57:11;;;;;;;14.98;1.50;;;10.10;85.00;;;;;;5046218;28;20081;-80
2023/01/05 05:59:38;;;;;;;10.77;1.63;;;10.10;85.00;;;;;;5047081;28;20141;-80
2023/01/05 06:02:05;;;;;;;7.65;1.58;;;10.10;85.10;;;;;;5029193;28;20054;-79
2023/01/05 06:04:32;;;;;;;11.30;1.67;;;10.10;85.00;;;;;;5046178;28;20049;-79
2023/01/05 06:07:01;;;;;;;13.52;1.95;;;10.10;85.10;;;;;;5044714;28;20289;-79
2023/01/05 06:09:28;;;;;;;12.18;2.30;;;10.10;85.10;;;;;;5045711;28;20150;-79
2023/01/05 06:11:55;;;;;;;9.73;1.48;;;10.10;85.00;;;;;;5046329;28;20077;-80
2023/01/05 06:14:22;;;;;;;14.10;2.35;;;10.10;85.20;;;;;;5049760;28;20053;-80
2023/01/05 06:16:49;;;;;;;14.77;2.47;;;10.10;85.20;;;;;;5049582;28;20159;-80
2023/01/05 06:19:16;;;;;;;10.85;1.20;;;10.10;85.40;;;;;;5036005;28;20331;-82
2023/01/05 06:21:43;;;;;;;20.60;2.38;;;10.10;85.40;;;;;;5033091;28;20053;-79
2023/01/05 06:24:11;;;;;;;12.77;1.77;;;10.10;85.50;;;;;;5032782;28;20052;-80
2023/01/05 06:26:38;;;;;;;15.65;2.20;;;10.10;85.40;;;;;;5049269;28;20080;-78
2023/01/05 06:29:05;;;;;;;15.20;2.20;;;10.10;85.50;;;;;;5050381;28;20060;-80
2023/01/05 06:31:33;;;;;;;13.75;2.33;;;10.10;85.50;;;;;;5049361;28;20269;-79
2023/01/05 06:34:00;;;;;;;12.98;1.75;;;10.10;85.50;;;;;;5049241;28;20149;-79
2023/01/05 06:36:27;;;;;;;13.27;1.95;;;10.10;85.60;;;;;;5049133;28;20068;-79
2023/01/05 06:38:54;;;;;;;14.48;1.90;;;10.10;85.70;;;;;;5050024;28;20068;-80
2023/01/05 06:41:22;;;;;;;17.50;2.57;;;10.10;85.70;;;;;;5050857;28;20155;-80
2023/01/05 06:43:49;;;;;;;9.80;1.50;;;10.10;85.80;;;;;;5049234;28;20275;-80
2023/01/05 06:46:16;;;;;;;16.42;2.83;;;10.10;85.70;;;;;;5048111;28;20060;-80
2023/01/05 06:48:43;;;;;;;13.75;2.50;;;10.00;86.00;;;;;;5039087;28;20054;-80
2023/01/05 06:51:10;;;;;;;13.25;2.53;;;10.10;86.00;;;;;;5045397;28;20123;-79
2023/01/05 06:53:37;;;;;;;13.23;2.43;;;10.10;85.90;;;;;;5039387;28;20057;-80
2023/01/05 06:56:05;;;;;;;9.85;1.20;;;10.00;86.00;;;;;;5038211;28;20257;-80
2023/01/05 06:58:34;;;;;;;14.77;2.33;;;10.00;86.00;;;;;;5046365;28;20054;-79
2023/01/05 07:01:03;;;;;;;10.00;1.50;;;10.10;85.80;;;;;;5045542;28;20943;-80
2023/01/05 07:03:30;;;;;;;11.13;1.98;;;10.10;85.90;;;;;;5076681;22;20050;-77
2023/01/05 07:05:57;;;;;;;9.93;1.57;;;10.10;85.80;;;;;;5041949;28;20057;-77
2023/01/05 07:08:24;;;;;;;17.23;2.40;;;10.10;85.70;;;;;;5040808;28;20293;-77
2023/01/05 07:10:51;;;;;;;11.32;1.50;;;10.10;85.80;;;;;;5070597;28;20057;-78
2023/01/05 07:13:18;;;;;;;12.65;1.42;;;10.10;85.70;;;;;;5052828;28;20140;-78
2023/01/05 07:15:47;;;;;;;14.20;2.25;;;10.10;85.80;;;;;;5047934;28;20045;-78
2023/01/05 07:18:14;;;;;;;13.47;2.13;;;10.10;85.60;;;;;;5050990;28;20046;-77
2023/01/05 07:20:41;;;;;;;10.73;1.70;;;10.10;85.70;;;;;;5048399;28;20364;-77
2023/01/05 07:23:08;;;;;;;7.97;1.10;;;10.10;85.60;;;;;;5048536;28;20045;-77
2023/01/05 07:25:35;;;;;;;12.85;2.25;;;10.10;85.80;;;;;;5053975;28;20510;-77
2023/01/05 07:28:02;;;;;;;14.95;2.58;;;10.10;85.80;;;;;;5046381;28;20147;-77
2023/01/05 07:30:29;;;;;;;12.93;2.10;;;10.10;85.80;;;;;;5047285;28;20057;-78
2023/01/05 07:32:59;;;;;;;13.40;2.17;;;10.10;85.90;;;;;;5047087;28;20720;-77
2023/01/05 07:35:27;;;;;;;10.27;1.90;;;10.10;86.00;;;;;;5049155;28;20165;-77
2023/01/05 07:37:55;;;;;;;16.50;2.28;;;10.10;86.10;;;;;;5029658;28;20099;-77
2023/01/05 07:40:22;;;;;;;10.55;1.33;;;10.00;86.10;;;;;;5045869;28;20049;-77
2023/01/05 07:42:50;;;;;;;14.43;1.70;;;10.00;86.20;;;;;;5046693;28;20137;-77
2023/01/05 07:45:17;;;;;;;13.00;2.17;;;10.00;86.30;;;;;;5046045;28;21137;-77
2023/01/05 07:47:44;;;;;;;13.60;2.05;;;10.00;86.40;;;;;;5053497;28;20673;-78
2023/01/05 07:50:13;;;;;;;11.05;1.85;;;10.00;86.50;;;;;;5043733;28;20608;-77
2023/01/05 07:52:40;;;;;;;8.50;1.88;;;10.00;86.60;;;;;;5041235;28;20081;-77
2023/01/05 07:55:07;;;;;;;14.40;1.90;;;10.00;86.70;;;;;;5050517;28;20101;-77
2023/01/05 07:57:34;;;;;;;12.82;2.85;;;10.00;86.80;;;;;;5052763;28;20332;-77
2023/01/05 08:00:01;;;;;;;14.55;1.73;;;10.00;86.90;;;;;;5052556;28;20055;-77
2023/01/05 08:02:38;;;;;;;10.60;2.05;;;9.90;87.10;;;;;;5047234;28;20410;-77
2023/01/05 08:05:05;;;;;;;12.15;1.88;;;9.90;87.20;;;;;;5046222;28;20056;-78
2023/01/05 08:07:35;;;;;;;8.20;0.97;;;9.90;87.50;;;;;;5052017;28;20485;-78
2023/01/05 08:15:31;;;;;;;16.58;2.28;;;9.80;87.60;;;;;;5053870;28;20058;-78
2023/01/05 08:17:58;;;;;;;14.57;2.22;;;9.80;87.60;;;;;;5045875;28;20089;-77
2023/01/05 08:20:25;;;;;;;19.73;2.27;;;9.80;87.60;;;;;;5045113;28;20164;-78
2023/01/05 08:22:54;;;;;;;15.45;2.75;;;9.80;87.70;;;;;;5048896;28;20387;-77
2023/01/05 08:25:21;;;;;;;13.43;2.38;;;9.80;87.70;;;;;;5028231;28;20104;-77
2023/01/05 08:27:51;;;;;;;14.68;2.22;;;9.80;87.70;;;;;;5044721;28;20606;-78
2023/01/05 08:30:19;;;;;;;14.00;2.20;;;9.80;87.70;;;;;;5043244;28;20531;-77
2023/01/05 08:32:45;;;;;;;10.60;1.43;;;9.80;87.70;;;;;;5049538;28;20485;-76
2023/01/05 08:35:12;;;;;;;7.43;1.63;;;9.80;87.70;;;;;;5034647;28;20275;-77
2023/01/05 08:37:39;;;;;;;9.15;1.55;;;9.80;87.60;;;;;;5057585;28;20529;-77
2023/01/05 08:40:09;;;;;;;11.00;2.45;;;9.80;87.50;;;;;;5065318;28;20122;-78
2023/01/05 08:42:36;;;;;;;12.15;2.15;;;9.80;87.60;;;;;;5064540;28;20124;-78
2023/01/05 08:45:04;;;;;;;13.57;2.17;;;9.80;87.50;;;;;;5053685;28;20499;-77
2023/01/05 08:47:31;;;;;;;13.13;2.35;;;9.80;87.50;;;;;;5043410;28;20363;-76
2023/01/05 08:49:58;;;;;;;11.77;1.90;;;9.80;87.40;;;;;;5042481;28;20049;-77
2023/01/05 08:52:25;;;;;;;13.77;1.83;;;9.80;87.50;;;;;;5042125;28;20050;-77
2023/01/05 08:54:52;;;;;;;13.13;2.15;;;9.80;87.50;;;;;;5048523;28;20133;-77
2023/01/05 08:57:20;;;;;;;13.87;1.80;;;9.90;87.30;;;;;;5027635;28;20555;-77
2023/01/05 08:59:47;;;;;;;9.18;1.27;;;9.90;87.30;;;;;;5051179;28;20862;-77
2023/01/05 09:02:14;;;;;;;10.82;1.25;;;9.90;87.30;;;;;;5042993;28;20049;-77
2023/01/05 09:04:41;;;;;;;6.63;1.23;;;9.90;87.40;;;;;;5044453;28;20585;-78
2023/01/05 09:07:08;;;;;;;17.02;2.63;;;9.90;87.30;;;;;;5037972;28;20125;-77
2023/01/05 09:09:35;;;;;;;10.97;1.60;;;10.00;87.40;;;;;;5050386;28;20053;-78
2023/01/05 09:12:02;;;;;;;13.73;1.80;;;10.00;87.30;;;;;;5045486;28;20300;-77
2023/01/05 09:14:30;;;;;;;10.95;1.50;;;10.00;87.40;;;;;;5045304;28;20056;-77
2023/01/05 09:16:57;;;;;;;12.32;1.55;;;10.00;87.40;;;;;;5050483;28;20061;-77
2023/01/05 09:19:25;;;;;;;10.55;1.30;;;10.00;87.30;;;;;;5046907;28;20149;-79
2023/01/05 09:21:52;;;;;;;14.13;2.00;;;10.00;87.30;;;;;;5028967;28;20052;-78
2023/01/05 09:24:19;;;;;;;12.13;2.33;;;10.00;87.20;;;;;;5046833;28;20253;-77
2023/01/05 09:26:46;;;;;;;11.45;1.70;;;10.00;87.30;;;;;;5045637;28;20042;-78
2023/01/05 09:29:13;;;;;;;8.00;1.52;;;10.00;87.20;;;;;;5046248;28;20050;-78
2023/01/05 09:31:42;;;;;;;10.15;1.50;;;10.00;87.10;;;;;;5051556;28;20595;-78
2023/01/05 09:34:10;;;;;;;16.70;2.30;;;10.00;87.20;;;;;;5050193;28;20052;-77
2023/01/05 09:36:37;;;;;;;9.98;1.50;;;10.00;87.20;;;;;;5029988;28;20279;-79
2023/01/05 09:39:05;;;;;;;11.48;2.00;;;10.00;87.20;;;;;;5061930;28;20187;-78
2023/01/05 09:41:36;;;;;;;13.93;1.58;;;10.00;87.20;;;;;;5050583;28;20062;-78
2023/01/05 09:44:06;;;;;;;6.15;1.20;;;10.00;86.90;;;;;;5042761;28;20049;-78
2023/01/05 09:46:36;;;;;;;10.73;1.70;;;10.00;86.80;;;;;;5028293;28;20720;-78
2023/01/05 09:49:07;;;;;;;9.07;1.77;;;10.00;86.90;;;;;;5048712;28;20292;-78
2023/01/05 09:51:35;;;;;;;13.82;2.08;;;10.00;87.10;;;;;;5057478;28;20106;-78
2023/01/05 09:54:02;;;;;;;11.82;1.95;;;10.00;86.90;;;;;;5058265;28;20060;-78
2023/01/05 09:56:32;;;;;;;10.18;2.15;;;10.10;86.60;;;;;;5048640;28;20819;-78
2023/01/05 09:59:07;;;;;;;15.87;2.07;;;10.10;86.40;;;;;;5058646;28;20075;-79
2023/01/05 10:01:37;;;;;;;8.25;1.30;;;10.10;86.50;;;;;;5036407;28;20346;-78
2023/01/05 10:04:10;;;;;;;15.45;2.38;;;10.00;86.50;;;;;;5054037;28;20584;-78
2023/01/05 10:06:42;;;;;;;12.70;1.52;;;10.00;86.50;;;;;;5036635;28;20049;-79
2023/01/05 10:09:17;;;;;;;13.15;1.67;;;10.00;86.40;;;;;;5042413;28;20053;-78
2023/01/05 10:14:38;;;;;;;7.55;1.17;;;10.00;86.00;;;;;;5062909;28;20268;-78
2023/01/05 10:17:13;;;;;;;14.63;2.00;;;10.00;86.00;;;;;;5042984;28;20045;-78
2023/01/05 10:19:42;;;;;;;11.68;2.15;;;10.00;86.00;;;;;;5064944;28;20060;-79
2023/01/05 10:22:24;;;;;;;14.25;2.85;;;10.00;86.20;;;;;;5050346;28;20049;-78
2023/01/05 10:24:58;;;;;;;12.13;1.47;;;10.00;86.30;;;;;;5055811;28;20406;-78
2023/01/05 10:27:29;;;;;;;11.60;1.42;;;10.00;86.30;;;;;;5068353;28;20331;-78
2023/01/05 10:30:05;;;;;;;12.85;1.80;;;10.00;86.30;;;;;;5042719;28;20045;-79
2023/01/05 10:32:40;;;;;;;10.65;1.67;;;10.00;86.40;;;;;;5058088;28;20057;-78
2023/01/05 10:35:27;;;;;;;12.32;1.52;;;10.00;86.30;;;;;;5058170;28;20053;-78
2023/01/05 10:38:05;;;;;;;11.30;1.77;;;10.00;86.20;;;;;;5051099;28;20057;-78
2023/01/05 10:40:46;;;;;;;11.25;1.08;;;10.00;86.20;;;;;;5048272;28;20725;-78
2023/01/05 10:43:39;;;;;;;13.23;1.70;;;10.00;86.10;;;;;;5061690;28;20239;-78
2023/01/05 10:46:09;;;;;;;8.73;1.25;;;10.00;85.70;;;;;;5032150;28;20136;-78
2023/01/05 10:48:36;;;;;;;11.73;1.58;;;10.10;85.70;;;;;;5049827;28;20451;-78
2023/01/05 10:51:06;;;;;;;5.30;0.93;;;10.00;85.60;;;;;;5050307;28;20423;-78
2023/01/05 10:53:36;;;;;;;12.02;1.48;;;10.00;85.10;;;;;;5052503;28;20700;-78
2023/01/05 10:56:05;;;;;;;7.93;1.20;;;10.00;85.20;;;;;;5043828;28;20046;-78
2023/01/05 10:58:34;;;;;;;10.43;1.70;;;10.00;85.00;;;;;;5051089;28;20833;-78
2023/01/05 11:01:04;;;;;;;8.52;1.15;;;10.00;84.80;;;;;;5047647;28;20664;-77
2023/01/05 11:03:39;;;;;;;8.27;1.50;;;10.00;84.80;;;;;;5046760;28;20053;-78
2023/01/05 11:06:09;;;;;;;9.60;1.30;;;10.00;85.00;;;;;;5051170;28;21705;-78
2023/01/05 11:08:36;;;;;;;6.10;0.57;;;10.10;85.00;;;;;;5047097;28;20116;-78
2023/01/05 11:11:06;;;;;;;11.00;1.58;;;10.10;85.10;;;;;;5045774;28;20049;-78
2023/01/05 11:13:35;;;;;;;13.15;1.95;;;10.10;84.90;;;;;;5046090;28;20155;-78
2023/01/05 11:16:08;;;;;;;8.53;1.20;;;10.20;85.00;;;;;;5042552;28;20051;-76
2023/01/05 11:18:40;;;;;;;9.52;1.52;;;10.10;85.00;;;;;;5044623;28;20256;-78
2023/01/05 11:21:12;;;;;;;12.65;2.08;;;10.10;85.00;;;;;;5046920;28;20093;-78
2023/01/05 11:23:41;;;;;;;10.10;2.30;;;10.10;85.10;;;;;;5045447;28;20073;-77
2023/01/05 11:26:25;;;;;;;5.90;1.00;;;10.10;85.30;;;;;;5029257;28;20072;-78
2023/01/05 11:29:17;;;;;;;8.63;1.37;;;10.20;85.30;;;;;;5044122;28;20499;-77
2023/01/05 11:31:48;;;;;;;11.60;1.40;;;10.20;85.50;;;;;;5036158;28;20377;-77
2023/01/05 11:34:35;;;;;;;14.13;2.08;;;10.20;85.60;;;;;;5043563;28;20193;-77
2023/01/05 11:37:06;;;;;;;8.43;1.35;;;10.20;85.70;;;;;;5048764;28;20581;-77
2023/01/05 11:39:38;;;;;;;9.02;1.33;;;10.20;85.40;;;;;;5032057;28;20057;-77
2023/01/05 11:42:18;;;;;;;10.70;1.60;;;10.30;85.20;;;;;;5047472;28;20084;-78
2023/01/05 11:44:48;;;;;;;16.80;2.58;;;10.30;85.30;;;;;;5046925;28;20249;-78
2023/01/05 11:47:23;;;;;;;10.48;1.90;;;10.30;85.30;;;;;;5047770;28;20140;-78
2023/01/05 11:50:02;;;;;;;12.63;2.00;;;10.30;85.20;;;;;;5042573;28;20080;-78
2023/01/05 11:52:35;;;;;;;8.30;1.33;;;10.30;85.30;;;;;;5039065;28;20066;-78
2023/01/05 11:55:23;;;;;;;12.10;1.77;;;10.30;85.20;;;;;;5043154;28;20694;-77
2023/01/05 11:57:51;;;;;;;6.35;1.02;;;10.30;85.10;;;;;;5054559;28;20279;-77
2023/01/05 12:00:27;;;;;;;7.60;0.90;;;10.40;85.20;;;;;;5047052;28;20466;-77
2023/01/05 12:03:25;;;;;;;9.40;1.48;;;10.40;85.00;;;;;;5046653;28;20096;-77
2023/01/05 12:05:55;;;;;;;8.18;1.33;;;10.40;85.00;;;;;;5016061;28;20077;-78
2023/01/05 12:08:27;;;;;;;13.70;1.87;;;10.40;84.90;;;;;;5047339;28;20045;-78
2023/01/05 12:11:06;;;;;;;6.30;1.13;;;10.40;85.00;;;;;;5050643;28;20383;-78
2023/01/05 12:13:53;;;;;;;11.68;1.67;;;10.40;85.00;;;;;;5058938;28;20053;-77
2023/01/05 12:16:36;;;;;;;12.70;1.85;;;10.40;85.00;;;;;;5043981;28;20070;-78
2023/01/05 12:19:22;;;;;;;13.02;1.90;;;10.40;84.90;;;;;;5041138;28;20053;-78
2023/01/05 12:21:58;;;;;;;11.30;1.80;;;10.40;85.00;;;;;;5044345;28;20636;-78
2023/01/05 12:24:43;;;;;;;15.57;1.63;;;10.40;85.00;;;;;;5028312;28;20291;-78
2023/01/05 12:27:28;;;;;;;10.32;2.38;;;10.40;84.80;;;;;;5041215;28;20140;-77
2023/01/05 12:30:10;;;;;;;13.65;2.10;;;10.40;84.80;;;;;;5041771;28;20693;-78
2023/01/05 12:32:47;;;;;;;12.15;1.98;;;10.40;84.90;;;;;;5031492;28;20590;-78
2023/01/05 12:35:50;;;;;;;11.43;2.17;;;10.40;84.70;;;;;;5039406;28;20509;-78
2023/01/05 12:38:36;;;;;;;10.00;1.58;;;10.30;84.80;;;;;;5043222;28;20273;-78
2023/01/05 12:41:27;;;;;;;14.23;2.15;;;10.30;85.00;;;;;;5045134;28;20053;-78
2023/01/05 12:44:08;;;;;;;6.60;1.00;;;10.30;85.00;;;;;;5026680;28;20184;-78
2023/01/05 12:46:47;;;;;;;10.98;1.52;;;10.30;85.00;;;;;;5044392;28;20042;-77
2023/01/05 12:49:17;;;;;;;14.13;1.93;;;10.30;85.20;;;;;;5028508;28;20051;-78
2023/01/05 12:51:50;;;;;;;10.05;2.05;;;10.30;85.50;;;;;;5044277;28;20344;-78
2023/01/05 12:54:31;;;;;;;13.57;2.60;;;10.30;85.60;;;;;;5044551;28;20049;-78
2023/01/05 12:57:05;;;;;;;15.65;2.03;;;10.30;85.80;;;;;;5047397;28;20560;-79
2023/01/05 12:59:37;;;;;;;9.10;1.27;;;10.30;86.00;;;;;;5046269;28;20595;-78
2023/01/05 13:02:22;;;;;;;14.50;2.03;;;10.30;86.10;;;;;;5045240;28;20056;-79
2023/01/05 13:04:55;;;;;;;10.98;2.22;;;10.30;86.20;;;;;;5046014;28;20392;-78
2023/01/05 13:07:26;;;;;;;9.48;1.98;;;10.30;86.40;;;;;;5042928;28;20049;-78
2023/01/05 13:09:57;;;;;;;8.63;1.63;;;10.30;86.50;;;;;;5046271;28;20061;-78
2023/01/05 13:12:26;;;;;;;12.57;2.40;;;10.30;86.60;;;;;;5045345;28;20166;-76
2023/01/05 13:15:06;;;;;;;16.50;2.10;;;10.30;86.60;;;;;;5045172;28;20079;-76
2023/01/05 13:17:36;;;;;;;13.93;2.58;;;10.30;86.70;;;;;;5041100;28;20338;-77
2023/01/05 13:20:12;;;;;;;18.02;2.80;;;10.30;86.70;;;;;;5028861;28;20170;-76
2023/01/05 13:22:42;;;;;;;16.77;2.58;;;10.30;86.70;;;;;;5038725;28;20137;-77
2023/01/05 13:25:18;;;;;;;17.50;2.50;;;10.40;86.80;;;;;;5043178;28;20049;-77
2023/01/05 13:27:47;;;;;;;14.80;2.27;;;10.30;86.80;;;;;;5042059;28;20096;-77
2023/01/05 13:30:21;;;;;;;16.92;2.47;;;10.40;86.80;;;;;;5044417;28;20315;-77
2023/01/05 13:33:12;;;;;;;14.38;2.25;;;10.40;86.70;;;;;;5042750;28;20042;-77
2023/01/05 13:35:53;;;;;;;16.85;2.35;;;10.40;86.70;;;;;;5048275;28;20554;-77
2023/01/05 13:38:53;;;;;;;14.23;2.05;;;10.40;86.60;;;;;;5048608;28;20195;-77